createdAt,value
2019-05-03T00:02:25.394Z,10.21
2019-05-03T00:05:04.163Z,10.17
2019-05-03T00:07:35.125Z,10.15
2019-05-03T00:10:09.725Z,10.18
2019-05-03T00:12:42.183Z,10.24
2019-05-03T00:15:22.045Z,10.22
2019-05-03T00:17:55.302Z,10.15
2019-05-03T00:20:29.302Z,10.04
2019-05-03T00:23:02.918Z,10.07
2019-05-03T00:25:35.557Z,9.97
2019-05-03T00:28:08.005Z,9.93
2019-05-03T00:30:42.583Z,9.86
2019-05-03T00:33:13.786Z,9.82
2019-05-03T00:35:52.192Z,9.72
2019-05-03T00:38:23.832Z,9.66
2019-05-03T00:40:56.303Z,9.59
2019-05-03T00:43:31.748Z,9.55
2019-05-03T00:46:03.134Z,9.52
2019-05-03T00:48:36.080Z,9.50
2019-05-03T00:51:07.827Z,9.46
2019-05-03T00:53:39.286Z,9.42
2019-05-03T00:56:12.364Z,9.36
2019-05-03T00:58:53.014Z,9.36
2019-05-03T01:01:23.487Z,9.33
2019-05-03T01:03:54.531Z,9.26
2019-05-03T01:06:26.798Z,9.23
2019-05-03T01:08:58.938Z,9.20
2019-05-03T01:11:34.044Z,9.17
2019-05-03T01:14:04.910Z,9.15
2019-05-03T01:16:37.392Z,9.15
2019-05-03T01:19:12.080Z,9.19
2019-05-03T01:21:44.178Z,9.19
2019-05-03T01:24:18.240Z,9.24
2019-05-03T01:26:50.005Z,9.28
2019-05-03T01:29:26.183Z,9.33
2019-05-03T01:31:57.752Z,9.35
2019-05-03T01:34:32.636Z,9.29
2019-05-03T01:37:03.314Z,9.32
2019-05-03T01:39:34.861Z,9.33
2019-05-03T01:42:07.900Z,9.49
2019-05-03T01:44:43.462Z,9.63
2019-05-03T01:47:21.903Z,9.68
2019-05-03T01:49:59.511Z,9.84
2019-05-03T01:52:35.339Z,9.92
2019-05-03T01:55:07.770Z,9.92
2019-05-03T01:57:41.838Z,10.03
2019-05-03T02:00:14.666Z,10.11
2019-05-03T02:02:48.217Z,10.10
2019-05-03T02:05:43.128Z,10.15
2019-05-03T02:08:15.389Z,10.17
2019-05-03T02:10:48.063Z,10.17
2019-05-03T02:13:20.644Z,10.15
2019-05-03T02:15:52.744Z,10.21
2019-05-03T02:18:23.670Z,10.25
2019-05-03T02:20:55.285Z,10.25
2019-05-03T02:23:28.160Z,10.29
2019-05-03T02:25:59.632Z,10.26
2019-05-03T02:28:32.693Z,10.27
2019-05-03T02:31:05.389Z,10.29
2019-05-03T02:33:37.145Z,10.27
2019-05-03T02:36:08.039Z,10.26
2019-05-03T02:38:42.979Z,10.22
2019-05-03T02:41:14.596Z,10.21
2019-05-03T02:43:47.681Z,10.14
2019-05-03T02:46:25.385Z,10.11
2019-05-03T02:48:58.947Z,10.08
2019-05-03T02:51:35.824Z,10.10
2019-05-03T02:54:06.451Z,10.03
2019-05-03T02:56:37.901Z,10.11
2019-05-03T02:59:11.091Z,10.13
2019-05-03T03:01:46.464Z,10.15
2019-05-03T03:04:19.485Z,10.16
2019-05-03T03:06:55.654Z,10.22
2019-05-03T03:09:28.506Z,10.19
2019-05-03T03:11:59.828Z,10.25
2019-05-03T03:14:32.789Z,10.23
2019-05-03T03:17:06.722Z,10.29
2019-05-03T03:19:39.801Z,10.25
2019-05-03T03:22:11.817Z,10.26
2019-05-03T03:24:45.831Z,10.19
2019-05-03T03:27:21.330Z,10.17
2019-05-03T03:29:56.995Z,10.16
2019-05-03T03:32:31.271Z,10.24
2019-05-03T03:35:12.741Z,10.26
2019-05-03T03:37:45.989Z,10.36
2019-05-03T03:40:18.201Z,10.45
2019-05-03T03:42:55.834Z,10.49
2019-05-03T03:45:29.461Z,10.55
2019-05-03T03:48:02.109Z,10.67
2019-05-03T03:50:35.913Z,10.66
2019-05-03T03:53:10.848Z,10.70
2019-05-03T03:55:45.827Z,10.72
2019-05-03T03:58:22.922Z,10.75
2019-05-03T04:00:55.461Z,10.82
2019-05-03T04:03:28.079Z,10.87
2019-05-03T04:05:59.258Z,10.91
2019-05-03T04:08:30.980Z,11.04
2019-05-03T04:11:03.025Z,11.16
2019-05-03T04:13:37.804Z,11.24
2019-05-03T04:16:26.104Z,11.35
2019-05-03T04:19:06.818Z,11.39
2019-05-03T04:21:48.274Z,11.46
2019-05-03T04:24:22.645Z,11.59
2019-05-03T04:27:18.426Z,11.71
2019-05-03T04:29:39.925Z,11.83
2019-05-03T04:32:15.764Z,11.96
2019-05-03T04:34:48.682Z,12.03
2019-05-03T04:37:19.513Z,12.25
2019-05-03T04:39:51.928Z,12.34
2019-05-03T04:42:25.378Z,12.31
2019-05-03T04:44:56.358Z,12.38
2019-05-03T04:47:29.992Z,12.49
2019-05-03T04:50:01.658Z,12.67
2019-05-03T04:52:36.183Z,12.76
2019-05-03T04:55:07.441Z,12.83
2019-05-03T04:57:44.950Z,12.99
2019-05-03T05:00:12.807Z,13.11
2019-05-03T05:02:46.157Z,13.16
2019-05-03T05:05:18.636Z,13.27
2019-05-03T05:08:00.731Z,13.40
2019-05-03T05:10:36.004Z,13.51
2019-05-03T05:13:06.190Z,13.66
2019-05-03T05:15:39.595Z,13.72
2019-05-03T05:18:29.267Z,13.82
2019-05-03T05:21:04.564Z,13.84
2019-05-03T05:23:35.639Z,13.63
2019-05-03T05:26:09.282Z,13.69
2019-05-03T05:28:45.089Z,13.67
2019-05-03T05:31:16.932Z,13.74
2019-05-03T05:33:48.193Z,14.00
2019-05-03T05:36:19.165Z,14.26
2019-05-03T05:38:49.966Z,14.36
2019-05-03T05:41:21.644Z,14.38
2019-05-03T05:43:52.479Z,14.43
2019-05-03T05:46:28.000Z,14.65
2019-05-03T05:49:00.050Z,14.70
2019-05-03T05:51:32.241Z,14.78
2019-05-03T05:54:02.853Z,15.03
2019-05-03T05:56:37.380Z,15.22
2019-05-03T05:59:16.831Z,15.33
2019-05-03T06:02:00.048Z,15.60
2019-05-03T06:04:31.299Z,15.65
2019-05-03T06:07:09.903Z,15.71
2019-05-03T06:09:46.371Z,16.10
2019-05-03T06:12:25.500Z,16.27
2019-05-03T06:15:00.335Z,16.44
2019-05-03T06:17:48.365Z,16.71
2019-05-03T06:20:25.866Z,17.08
2019-05-03T06:23:05.221Z,17.06
2019-05-03T06:25:37.954Z,17.35
2019-05-03T06:28:18.257Z,17.51
2019-05-03T06:30:56.431Z,17.58
2019-05-03T06:33:27.776Z,17.65
2019-05-03T06:35:59.817Z,17.71
2019-05-03T06:38:34.426Z,17.67
2019-05-03T06:41:05.838Z,17.62
2019-05-03T06:43:44.065Z,17.59
2019-05-03T06:46:12.294Z,17.84
2019-05-03T06:48:46.620Z,17.64
2019-05-03T06:51:20.287Z,17.86
2019-05-03T06:53:51.458Z,17.94
2019-05-03T06:56:29.098Z,17.88
2019-05-03T06:58:59.067Z,17.85
2019-05-03T07:01:34.498Z,18.07
2019-05-03T07:04:15.127Z,18.08
2019-05-03T07:07:05.264Z,18.28
2019-05-03T07:09:44.707Z,18.20
2019-05-03T07:12:16.859Z,18.65
2019-05-03T07:14:50.501Z,18.80
2019-05-03T07:17:24.826Z,18.40
2019-05-03T07:19:56.329Z,18.41
2019-05-03T07:22:27.676Z,18.61
2019-05-03T07:25:00.048Z,18.78
2019-05-03T07:27:31.499Z,18.60
2019-05-03T07:30:04.930Z,18.68
2019-05-03T07:32:35.824Z,18.73
2019-05-03T07:35:09.156Z,19.17
2019-05-03T07:37:40.981Z,19.48
2019-05-03T07:40:14.925Z,19.90
2019-05-03T07:42:46.953Z,20.26
2019-05-03T07:45:19.734Z,20.47
2019-05-03T07:47:52.896Z,20.44
2019-05-03T07:50:26.053Z,20.58
2019-05-03T07:52:57.172Z,20.77
2019-05-03T07:55:30.963Z,20.63
2019-05-03T07:58:07.479Z,20.84
2019-05-03T08:00:39.749Z,21.32
2019-05-03T08:03:12.222Z,21.50
2019-05-03T08:05:45.430Z,21.57
2019-05-03T08:08:18.241Z,21.28
2019-05-03T08:10:49.771Z,21.44
2019-05-03T08:13:21.738Z,21.29
2019-05-03T08:15:52.384Z,20.56
2019-05-03T08:18:25.939Z,20.45
2019-05-03T08:20:56.615Z,20.86
2019-05-03T08:23:30.534Z,21.33
2019-05-03T08:26:02.996Z,21.57
2019-05-03T08:28:35.066Z,21.40
2019-05-03T08:31:24.053Z,21.46
2019-05-03T08:34:15.144Z,21.28
2019-05-03T08:36:56.812Z,20.77
2019-05-03T08:39:28.015Z,20.59
2019-05-03T08:42:04.804Z,20.50
2019-05-03T08:44:37.205Z,19.97
2019-05-03T08:47:09.065Z,19.87
2019-05-03T08:49:44.878Z,19.93
2019-05-03T08:52:17.142Z,20.67
2019-05-03T08:54:50.257Z,21.83
2019-05-03T08:57:22.499Z,21.69
2019-05-03T08:59:55.076Z,21.07
2019-05-03T09:02:27.181Z,20.37
2019-05-03T09:05:00.569Z,20.83
2019-05-03T09:07:35.507Z,21.97
2019-05-03T09:10:12.617Z,22.42
2019-05-03T09:13:03.449Z,22.77
2019-05-03T09:15:36.618Z,22.67
2019-05-03T09:18:07.762Z,21.98
2019-05-03T09:20:39.443Z,21.79
2019-05-03T09:23:14.897Z,21.29
2019-05-03T09:25:48.189Z,20.59
2019-05-03T09:28:21.164Z,20.38
2019-05-03T09:30:52.664Z,21.29
2019-05-03T09:33:24.971Z,22.54
2019-05-03T09:35:56.923Z,23.11
2019-05-03T09:38:31.367Z,23.25
2019-05-03T09:41:11.034Z,23.87
2019-05-03T09:43:41.681Z,24.87
2019-05-03T09:46:14.699Z,25.61
2019-05-03T09:48:46.415Z,25.26
2019-05-03T09:51:20.754Z,25.53
2019-05-03T09:53:56.090Z,25.56
2019-05-03T09:56:55.289Z,26.18
2019-05-03T09:59:21.179Z,25.46
2019-05-03T10:01:58.411Z,25.57
2019-05-03T10:04:30.342Z,25.01
2019-05-03T10:07:02.001Z,25.82
2019-05-03T10:09:35.359Z,26.04
2019-05-03T10:12:16.144Z,24.31
2019-05-03T10:14:49.237Z,24.12
2019-05-03T10:17:28.625Z,24.54
2019-05-03T10:20:05.089Z,24.00
2019-05-03T10:22:37.199Z,25.17
2019-05-03T10:25:08.569Z,25.83
2019-05-03T10:27:52.426Z,25.38
2019-05-03T10:30:28.888Z,26.01
2019-05-03T10:33:06.733Z,26.92
2019-05-03T10:57:05.310Z,20.43
2019-05-03T10:59:36.421Z,20.57
2019-05-03T11:02:17.967Z,21.47
2019-05-03T11:08:10.501Z,26.56
2019-05-03T11:10:41.186Z,26.65
2019-05-03T11:13:16.140Z,25.58
2019-05-03T11:15:47.015Z,24.85
2019-05-03T11:18:19.590Z,23.40
2019-05-03T11:20:50.521Z,23.40
2019-05-03T11:23:25.080Z,23.29
2019-05-03T11:25:56.336Z,23.39
2019-05-03T11:28:27.230Z,23.93
2019-05-03T11:31:02.471Z,26.64
2019-05-03T11:33:37.298Z,27.87
2019-05-03T11:36:12.534Z,25.67
2019-05-03T11:38:45.575Z,23.90
2019-05-03T11:41:29.531Z,24.60
2019-05-03T11:43:49.225Z,23.55
2019-05-03T11:46:20.172Z,23.01
2019-05-03T11:48:51.931Z,20.97
2019-05-03T11:51:24.514Z,20.27
2019-05-03T11:53:54.951Z,20.21
2019-05-03T11:56:26.606Z,22.13
2019-05-03T11:58:57.762Z,26.54
2019-05-03T12:01:30.206Z,28.23
2019-05-03T12:04:04.836Z,30.46
2019-05-03T12:06:36.789Z,31.98
2019-05-03T12:09:08.093Z,30.11
2019-05-03T12:11:39.967Z,28.07
2019-05-03T12:14:11.765Z,25.70
2019-05-03T12:19:24.713Z,23.44
2019-05-03T12:21:54.927Z,23.51
2019-05-03T12:24:27.103Z,23.68
2019-05-03T12:26:58.519Z,24.59
2019-05-03T12:29:29.460Z,28.43
2019-05-03T12:32:00.501Z,30.11
2019-05-03T12:34:31.300Z,26.92
2019-05-03T12:37:05.115Z,25.60
2019-05-03T12:39:36.070Z,24.31
2019-05-03T12:42:07.023Z,24.03
2019-05-03T12:44:38.914Z,24.03
2019-05-03T12:47:09.891Z,24.48
2019-05-03T12:49:40.850Z,28.30
2019-05-03T12:52:12.739Z,29.55
2019-05-03T12:54:46.101Z,27.27
2019-05-03T12:57:16.749Z,26.05
2019-05-03T12:59:49.413Z,25.70
2019-05-03T13:02:28.239Z,25.61
2019-05-03T13:04:59.099Z,26.74
2019-05-03T13:07:37.717Z,30.61
2019-05-03T13:10:10.236Z,30.43
2019-05-03T13:12:52.755Z,28.74
2019-05-03T13:15:15.732Z,28.26
2019-05-03T13:17:46.866Z,27.84
2019-05-03T13:20:18.114Z,29.52
2019-05-03T13:22:49.546Z,31.84
2019-05-03T13:25:20.587Z,31.37
2019-05-03T13:27:54.802Z,33.72
2019-05-03T13:30:29.627Z,35.76
2019-05-03T13:33:02.020Z,37.23
2019-05-03T13:35:35.014Z,37.30
2019-05-03T13:38:06.578Z,36.59
2019-05-03T13:40:37.367Z,37.04
2019-05-03T13:43:09.434Z,35.15
2019-05-03T13:45:40.180Z,36.02
2019-05-03T13:48:12.340Z,36.43
2019-05-03T13:50:44.638Z,35.61
2019-05-03T13:53:16.932Z,35.23
2019-05-03T13:55:49.090Z,34.79
2019-05-03T13:58:20.092Z,34.30
2019-05-03T14:00:51.221Z,33.22
2019-05-03T14:03:22.488Z,33.67
2019-05-03T14:05:55.159Z,34.07
2019-05-03T14:08:25.659Z,34.04
2019-05-03T14:10:56.530Z,33.81
2019-05-03T14:13:27.557Z,33.45
2019-05-03T14:15:58.389Z,33.01
2019-05-03T14:18:29.453Z,33.19
2019-05-03T14:21:02.136Z,33.18
2019-05-03T14:23:34.793Z,31.89
2019-05-03T14:26:05.928Z,29.78
2019-05-03T14:28:36.680Z,31.07
2019-05-03T14:31:10.275Z,33.77
2019-05-03T14:33:41.206Z,35.09
2019-05-03T14:36:15.917Z,34.24
2019-05-03T14:38:47.061Z,32.62
2019-05-03T14:41:17.544Z,32.04
2019-05-03T14:43:48.642Z,30.39
2019-05-03T14:46:30.026Z,28.38
2019-05-03T14:48:54.861Z,27.27
2019-05-03T14:51:25.466Z,28.35
2019-05-03T14:53:57.167Z,29.80
2019-05-03T14:56:29.876Z,31.45
2019-05-03T15:06:35.278Z,31.11
2019-05-03T15:09:07.880Z,30.71
2019-05-03T15:11:38.433Z,28.60
2019-05-03T15:14:09.429Z,26.70
2019-05-03T15:16:40.471Z,25.67
2019-05-03T15:19:11.442Z,24.67
2019-05-03T15:21:42.904Z,24.22
2019-05-03T15:24:14.536Z,23.69
2019-05-03T15:26:45.693Z,23.16
2019-05-03T15:29:16.766Z,22.78
2019-05-03T15:31:48.070Z,22.65
2019-05-03T15:34:18.629Z,22.73
2019-05-03T15:36:49.547Z,22.71
2019-05-03T15:39:20.575Z,22.72
2019-05-03T15:41:54.284Z,22.77
2019-05-03T15:44:30.985Z,22.80
2019-05-03T15:47:09.870Z,23.42
2019-05-03T15:49:38.866Z,24.38
2019-05-03T15:52:10.194Z,24.53
2019-05-03T15:54:40.770Z,24.63
2019-05-03T15:57:11.276Z,25.66
2019-05-03T15:59:44.518Z,25.99
2019-05-03T16:02:15.603Z,24.19
2019-05-03T16:04:46.888Z,23.22
2019-05-03T16:07:18.057Z,22.54
2019-05-03T16:09:49.230Z,22.03
2019-05-03T16:12:20.176Z,21.65
2019-05-03T16:14:51.113Z,21.41
2019-05-03T16:17:24.513Z,21.14
2019-05-03T16:19:58.403Z,21.21
2019-05-03T16:22:28.900Z,21.11
2019-05-03T16:25:01.104Z,21.05
2019-05-03T16:27:34.759Z,21.04
2019-05-03T16:33:51.927Z,20.15
2019-05-03T16:36:23.801Z,19.85
2019-05-03T16:38:57.487Z,19.41
2019-05-03T16:41:28.475Z,19.11
2019-05-03T16:44:03.099Z,18.92
2019-05-03T16:46:34.351Z,18.63
2019-05-03T16:49:06.447Z,18.55
2019-05-03T16:51:37.814Z,18.43
2019-05-03T16:54:12.231Z,18.33
2019-05-03T16:56:44.440Z,18.20
2019-05-03T16:59:17.244Z,18.16
2019-05-03T17:01:46.080Z,18.02
2019-05-03T17:04:34.872Z,17.94
2019-05-03T17:07:06.731Z,17.87
2019-05-03T17:09:39.886Z,17.80
2019-05-03T17:23:25.791Z,17.65
2019-05-03T17:25:58.255Z,17.55
2019-05-03T17:28:29.706Z,17.51
2019-05-03T17:31:00.329Z,17.40
2019-05-03T17:33:31.069Z,17.30
2019-05-03T17:36:01.983Z,17.24
2019-05-03T17:38:34.994Z,17.19
2019-05-03T17:41:06.871Z,17.10
2019-05-03T17:43:39.275Z,17.04
2019-05-03T17:46:11.964Z,16.95
2019-05-03T17:48:42.873Z,16.92
2019-05-03T17:51:35.148Z,16.79
2019-05-03T17:54:10.925Z,16.79
2019-05-03T17:56:44.523Z,16.74
2019-05-03T17:59:16.997Z,16.75
2019-05-03T18:02:06.906Z,16.71
2019-05-03T18:04:39.648Z,16.66
2019-05-03T18:07:15.114Z,16.61
2019-05-03T18:09:47.980Z,16.56
2019-05-03T18:12:18.920Z,16.55
2019-05-03T18:14:50.862Z,16.50
2019-05-03T18:17:22.329Z,16.43
2019-05-03T18:19:55.198Z,16.38
2019-05-03T18:22:26.978Z,16.34
2019-05-03T18:24:57.807Z,16.30
2019-05-03T18:27:29.558Z,16.28
2019-05-03T18:30:00.194Z,16.24
2019-05-03T18:32:34.444Z,16.19
2019-05-03T18:35:06.158Z,16.14
2019-05-03T18:37:37.410Z,16.10
2019-05-03T18:40:07.970Z,16.10
2019-05-03T18:42:44.815Z,16.05
2019-05-03T18:45:20.867Z,15.99
2019-05-03T18:47:51.801Z,15.99
2019-05-03T18:50:25.164Z,15.93
2019-05-03T18:52:56.338Z,15.88
2019-05-03T18:55:28.003Z,15.89
2019-05-03T18:58:00.064Z,15.87
2019-05-03T19:00:31.813Z,15.85
2019-05-03T19:03:02.956Z,15.81
2019-05-03T19:05:35.668Z,15.79
2019-05-03T19:08:15.310Z,15.76
2019-05-03T19:10:47.781Z,15.74
2019-05-03T19:13:26.678Z,15.71
2019-05-03T19:16:00.770Z,15.62
2019-05-03T19:18:35.119Z,15.59
2019-05-03T19:21:06.040Z,15.49
2019-05-03T19:23:36.462Z,15.47
2019-05-03T19:26:09.240Z,15.47
2019-05-03T19:28:40.081Z,15.44
2019-05-03T19:31:13.072Z,15.43
2019-05-03T19:33:45.660Z,15.38
2019-05-03T19:36:16.818Z,15.36
2019-05-03T19:38:48.236Z,15.31
2019-05-03T19:41:19.475Z,15.26
2019-05-03T19:43:50.414Z,15.25
2019-05-03T19:46:21.858Z,15.25
2019-05-03T19:48:54.589Z,15.20
2019-05-03T19:51:26.476Z,15.17
2019-05-03T19:53:58.599Z,15.21
2019-05-03T19:56:31.239Z,15.19
2019-05-03T19:59:04.750Z,15.15
2019-05-03T20:01:37.116Z,15.23
2019-05-03T20:04:27.908Z,15.18
2019-05-03T20:07:05.329Z,15.09
2019-05-03T20:09:36.747Z,15.01
2019-05-03T20:12:08.506Z,14.97
2019-05-03T20:14:40.392Z,14.86
2019-05-03T20:17:14.688Z,14.77
2019-05-03T20:19:45.828Z,14.70
2019-05-03T20:22:17.577Z,14.60
2019-05-03T20:24:48.723Z,14.49
2019-05-03T20:27:19.256Z,14.35
2019-05-03T20:29:50.187Z,14.26
2019-05-03T20:32:25.093Z,14.24
2019-05-03T20:34:55.792Z,14.18
2019-05-03T20:37:28.225Z,14.07
2019-05-03T20:40:05.277Z,14.14
2019-05-03T20:42:54.757Z,14.15
2019-05-03T20:45:36.075Z,14.15
2019-05-03T20:48:08.421Z,14.22
2019-05-03T20:50:41.406Z,14.15
2019-05-03T20:53:16.235Z,14.11
2019-05-03T20:55:47.592Z,14.12
2019-05-03T20:58:18.321Z,14.07
2019-05-03T21:00:50.996Z,14.10
2019-05-03T21:03:24.820Z,14.06
2019-05-03T21:05:58.507Z,14.05
2019-05-03T21:08:30.962Z,14.03
2019-05-03T21:11:05.423Z,14.00
2019-05-03T21:13:41.985Z,14.05
2019-05-03T21:16:15.261Z,14.09
2019-05-03T21:18:51.719Z,14.06
2019-05-03T21:21:28.262Z,14.10
2019-05-03T21:24:01.225Z,14.06
2019-05-03T21:26:32.084Z,14.15
2019-05-03T21:29:04.752Z,14.16
2019-05-03T21:31:35.592Z,14.23
2019-05-03T21:34:07.364Z,14.15
2019-05-03T21:36:39.134Z,14.18
2019-05-03T21:39:10.378Z,14.21
2019-05-03T21:41:41.108Z,14.17
2019-05-03T21:44:15.838Z,14.15
2019-05-03T21:46:48.314Z,14.13
2019-05-03T21:49:20.782Z,14.07
2019-05-03T21:51:53.639Z,14.09
2019-05-03T21:54:24.658Z,14.06
2019-05-03T21:56:57.976Z,14.07
2019-05-03T21:59:28.021Z,14.14
2019-05-03T22:02:00.997Z,14.10
2019-05-03T22:04:35.175Z,14.10
2019-05-03T22:07:06.967Z,14.07
2019-05-03T22:09:38.623Z,14.05
2019-05-03T22:12:10.593Z,14.02
2019-05-03T22:14:43.114Z,14.04
2019-05-03T22:17:35.799Z,14.01
2019-05-03T22:20:12.888Z,14.01
2019-05-03T22:22:45.332Z,14.00
2019-05-03T22:25:18.718Z,13.95
2019-05-03T22:27:50.982Z,13.95
2019-05-03T22:30:21.852Z,13.97
2019-05-03T22:32:54.777Z,13.98
2019-05-03T22:35:25.162Z,13.96
2019-05-03T22:37:56.149Z,13.98
2019-05-03T22:40:28.370Z,13.96
2019-05-03T22:43:01.646Z,13.96
2019-05-03T22:45:32.087Z,13.98
2019-05-03T22:48:05.267Z,13.96
2019-05-03T22:50:36.753Z,13.93
2019-05-03T22:53:07.583Z,13.89
2019-05-03T22:55:39.835Z,13.91
2019-05-03T22:58:10.782Z,13.91
2019-05-03T23:00:42.015Z,13.87
2019-05-03T23:03:14.500Z,13.89
2019-05-03T23:05:46.607Z,13.86
2019-05-03T23:08:17.382Z,13.86
2019-05-03T23:10:48.428Z,13.84
2019-05-03T23:13:20.181Z,13.83
2019-05-03T23:15:50.806Z,13.85
2019-05-03T23:18:21.964Z,13.85
2019-05-03T23:20:55.293Z,13.88
2019-05-03T23:23:45.554Z,13.89
2019-05-03T23:26:17.720Z,13.86
2019-05-03T23:28:50.281Z,13.81
2019-05-03T23:31:20.905Z,13.78
2019-05-03T23:33:54.466Z,13.77
2019-05-03T23:36:33.139Z,13.74
2019-05-03T23:38:59.514Z,13.66
2019-05-03T23:41:30.505Z,13.61
2019-05-03T23:44:04.759Z,13.43
2019-05-03T23:46:37.180Z,13.31
2019-05-03T23:49:08.148Z,13.18
2019-05-03T23:51:54.954Z,13.15
2019-05-03T23:54:25.113Z,13.04
2019-05-03T23:56:56.261Z,13.04
2019-05-03T23:59:27.189Z,12.95
